Time;durP1;ratioP1;P1;durP2;ratioP2;P2;SDS_P1;SDS_P2;PMS_P1;PMS_P2;Temp;Humidity;BMP_temperature;BMP_pressure;BME280_temperature;BME280_humidity;BME280_pressure;Samples;Min_cycle;Max_cycle;Signal;HPM_P1;HPM_P2
2022/04/08 00:01:52;;;;;;;6.63;2.72;;;;;;;;;;5094414;28;20206;-70
2022/04/08 00:04:20;;;;;;;13.35;2.72;;;;;;;;;;5094436;28;20626;-70
2022/04/08 00:06:47;;;;;;;3.78;2.10;;;;;;;;;;5094353;28;20200;-70
2022/04/08 00:09:14;;;;;;;7.05;2.70;;;;;;;;;;5094121;28;20196;-71
2022/04/08 00:11:43;;;;;;;6.88;2.55;;;;;;;;;;5094007;28;20196;-71
2022/04/08 00:14:10;;;;;;;16.48;2.78;;;;;;;;;;5094410;28;20289;-71
2022/04/08 00:16:39;;;;;;;6.50;2.78;;;;;;;;;;5093656;28;20294;-71
2022/04/08 00:19:06;;;;;;;8.55;2.53;;;;;;;;;;5093915;28;20199;-70
2022/04/08 00:21:33;;;;;;;2.00;1.80;;;;;;;;;;5094106;28;20192;-71
2022/04/08 00:24:00;;;;;;;13.70;2.80;;;;;;;;;;5093692;28;20194;-70
2022/04/08 00:26:28;;;;;;;3.40;2.08;;;;;;;;;;5093740;28;20199;-71
2022/04/08 00:28:56;;;;;;;4.38;2.30;;;;;;;;;;5093300;28;20200;-71
2022/04/08 00:31:23;;;;;;;1.73;1.63;;;;;;;;;;5093508;28;20203;-71
2022/04/08 00:33:51;;;;;;;6.80;1.55;;;;;;;;;;5094177;28;20196;-71
2022/04/08 00:36:18;;;;;;;2.33;1.70;;;;;;;;;;5093737;28;20731;-71
2022/04/08 00:38:45;;;;;;;2.22;1.25;;;;;;;;;;5094027;28;20198;-71
2022/04/08 00:41:13;;;;;;;6.88;1.67;;;;;;;;;;5093795;28;20223;-72
2022/04/08 00:43:40;;;;;;;3.15;1.60;;;;;;;;;;5093523;28;20565;-72
2022/04/08 00:46:10;;;;;;;2.20;1.30;;;;;;;;;;5094082;28;20294;-70
2022/04/08 00:48:38;;;;;;;4.00;2.58;;;;;;;;;;5093530;28;20640;-71
2022/04/08 00:51:06;;;;;;;5.30;1.58;;;;;;;;;;5093496;28;20199;-71
2022/04/08 00:53:33;;;;;;;2.70;1.27;;;;;;;;;;5093988;28;20196;-73
2022/04/08 00:56:00;;;;;;;4.45;1.75;;;;;;;;;;5093636;28;20200;-71
2022/04/08 00:58:28;;;;;;;3.55;2.05;;;;;;;;;;5093434;28;20262;-71
2022/04/08 01:00:55;;;;;;;4.18;1.70;;;;;;;;;;5093190;28;20255;-72
2022/04/08 01:03:23;;;;;;;2.50;2.20;;;;;;;;;;5093238;28;20281;-72
2022/04/08 01:05:51;;;;;;;2.25;2.05;;;;;;;;;;5093542;28;20204;-72
2022/04/08 01:08:18;;;;;;;4.13;2.25;;;;;;;;;;5093613;28;20204;-72
2022/04/08 01:10:45;;;;;;;6.57;2.80;;;;;;;;;;5093537;28;20211;-71
2022/04/08 01:13:13;;;;;;;2.95;2.20;;;;;;;;;;5093224;28;20191;-71
2022/04/08 01:15:40;;;;;;;1.80;1.70;;;;;;;;;;5093454;28;20278;-72
2022/04/08 01:18:08;;;;;;;23.38;3.83;;;;;;;;;;5093495;28;20235;-71
2022/04/08 01:20:37;;;;;;;4.95;2.42;;;;;;;;;;5092975;28;20220;-70
2022/04/08 01:23:04;;;;;;;5.13;2.38;;;;;;;;;;5093834;28;20191;-71
2022/04/08 01:25:33;;;;;;;2.65;2.10;;;;;;;;;;5093450;28;20525;-71
2022/04/08 01:28:00;;;;;;;2.03;1.90;;;;;;;;;;5093392;28;20198;-70
2022/04/08 01:30:27;;;;;;;5.60;2.35;;;;;;;;;;5093324;28;20344;-69
2022/04/08 01:32:54;;;;;;;4.18;2.58;;;;;;;;;;5093028;28;20286;-69
2022/04/08 01:35:22;;;;;;;7.28;3.10;;;;;;;;;;5093132;28;20200;-69
2022/04/08 01:37:49;;;;;;;2.40;2.20;;;;;;;;;;5093374;28;20283;-69
2022/04/08 01:40:17;;;;;;;7.30;1.65;;;;;;;;;;5093431;28;20219;-69
2022/04/08 01:42:45;;;;;;;2.95;1.60;;;;;;;;;;5095949;28;20203;-69
2022/04/08 01:45:13;;;;;;;2.70;1.60;;;;;;;;;;5097374;28;20196;-70
2022/04/08 01:47:40;;;;;;;2.47;1.80;;;;;;;;;;5097256;28;20267;-69
2022/04/08 01:50:08;;;;;;;1.95;1.40;;;;;;;;;;5096916;28;20276;-69
2022/04/08 01:52:35;;;;;;;3.10;1.90;;;;;;;;;;5097001;28;20193;-70
2022/04/08 01:55:05;;;;;;;3.30;1.67;;;;;;;;;;5096538;28;20666;-69
2022/04/08 01:57:33;;;;;;;5.80;1.92;;;;;;;;;;5096917;28;20592;-69
2022/04/08 02:00:02;;;;;;;3.95;1.60;;;;;;;;;;5096616;28;20259;-69
2022/04/08 02:02:29;;;;;;;2.58;1.45;;;;;;;;;;5096484;28;20202;-69
2022/04/08 02:04:56;;;;;;;1.17;1.08;;;;;;;;;;5096293;28;20195;-69
2022/04/08 02:07:23;;;;;;;3.10;1.70;;;;;;;;;;5096347;28;20190;-69
2022/04/08 02:09:50;;;;;;;1.30;1.20;;;;;;;;;;5096374;28;20671;-69
2022/04/08 02:12:18;;;;;;;3.67;1.30;;;;;;;;;;5096304;28;20655;-69
2022/04/08 02:14:45;;;;;;;2.28;1.25;;;;;;;;;;5096395;28;20215;-69
2022/04/08 02:17:13;;;;;;;2.10;1.90;;;;;;;;;;5096172;28;20200;-69
2022/04/08 02:19:41;;;;;;;1.25;1.15;;;;;;;;;;5096496;28;20212;-69
2022/04/08 02:22:08;;;;;;;1.63;1.52;;;;;;;;;;5096026;28;20246;-70
2022/04/08 02:24:35;;;;;;;2.58;2.38;;;;;;;;;;5096067;28;20196;-70
2022/04/08 02:27:05;;;;;;;2.58;1.35;;;;;;;;;;5095901;28;20189;-70
2022/04/08 02:29:32;;;;;;;3.53;1.98;;;;;;;;;;5096611;28;20600;-70
2022/04/08 02:31:59;;;;;;;1.42;1.10;;;;;;;;;;5096205;28;20201;-69
2022/04/08 02:34:28;;;;;;;1.33;1.23;;;;;;;;;;5095849;28;20659;-69
2022/04/08 02:36:55;;;;;;;1.80;1.30;;;;;;;;;;5096053;28;20534;-69
2022/04/08 02:39:22;;;;;;;2.10;1.30;;;;;;;;;;5096060;28;20553;-69
2022/04/08 02:41:49;;;;;;;1.00;1.00;;;;;;;;;;5095991;28;20574;-69
2022/04/08 02:44:16;;;;;;;2.35;1.35;;;;;;;;;;5096008;28;20218;-69
2022/04/08 02:46:44;;;;;;;1.00;1.00;;;;;;;;;;5095585;28;20228;-69
2022/04/08 02:49:11;;;;;;;1.27;1.13;;;;;;;;;;5096263;28;20200;-69
2022/04/08 02:51:39;;;;;;;1.20;1.10;;;;;;;;;;5095817;28;20240;-69
2022/04/08 02:54:06;;;;;;;1.52;1.20;;;;;;;;;;5095112;28;20745;-69
2022/04/08 02:56:34;;;;;;;1.50;1.40;;;;;;;;;;5096511;28;20287;-70
2022/04/08 02:59:01;;;;;;;3.47;1.20;;;;;;;;;;5096111;28;20279;-69
2022/04/08 03:01:28;;;;;;;1.17;1.10;;;;;;;;;;5095170;28;20218;-70
2022/04/08 03:03:55;;;;;;;4.32;1.25;;;;;;;;;;5095654;28;20195;-70
2022/04/08 03:06:23;;;;;;;1.35;0.90;;;;;;;;;;5095365;28;20647;-71
2022/04/08 03:08:52;;;;;;;1.52;1.15;;;;;;;;;;5095485;28;20197;-70
2022/04/08 03:11:19;;;;;;;1.20;1.15;;;;;;;;;;5095308;28;20211;-71
2022/04/08 03:13:46;;;;;;;2.17;1.25;;;;;;;;;;5095433;28;20210;-71
2022/04/08 03:16:14;;;;;;;1.80;1.30;;;;;;;;;;5095135;28;20706;-71
2022/04/08 03:18:41;;;;;;;2.03;1.50;;;;;;;;;;5094921;28;20654;-71
2022/04/08 03:21:09;;;;;;;2.38;1.05;;;;;;;;;;5095203;28;20222;-72
2022/04/08 03:23:39;;;;;;;4.32;1.90;;;;;;;;;;5096004;28;20199;-71
2022/04/08 03:26:08;;;;;;;7.07;1.90;;;;;;;;;;5095321;28;20244;-71
2022/04/08 03:28:35;;;;;;;7.72;2.47;;;;;;;;;;5095112;28;20194;-72
2022/04/08 03:31:02;;;;;;;2.17;1.58;;;;;;;;;;5094644;28;20211;-71
2022/04/08 03:33:30;;;;;;;2.55;1.45;;;;;;;;;;5095217;28;20198;-71
2022/04/08 03:35:57;;;;;;;7.72;1.75;;;;;;;;;;5094918;28;20201;-71
2022/04/08 03:38:24;;;;;;;5.70;2.10;;;;;;;;;;5094901;28;20288;-71
2022/04/08 03:40:51;;;;;;;3.65;1.80;;;;;;;;;;5094368;28;20217;-70
2022/04/08 03:43:21;;;;;;;6.55;2.20;;;;;;;;;;5094910;28;20568;-71
2022/04/08 03:45:48;;;;;;;11.75;1.50;;;;;;;;;;5094805;28;20198;-72
2022/04/08 03:48:15;;;;;;;5.25;1.73;;;;;;;;;;5094822;28;20221;-71
2022/04/08 03:50:42;;;;;;;8.25;3.67;;;;;;;;;;5094375;28;20208;-71
2022/04/08 03:53:12;;;;;;;3.80;2.13;;;;;;;;;;5094494;28;20201;-71
2022/04/08 03:55:40;;;;;;;7.43;1.77;;;;;;;;;;5094576;28;20189;-71
2022/04/08 03:58:07;;;;;;;6.25;1.92;;;;;;;;;;5094149;28;20240;-71
2022/04/08 04:00:36;;;;;;;3.20;1.95;;;;;;;;;;5094723;28;20223;-71
2022/04/08 04:03:04;;;;;;;7.88;2.45;;;;;;;;;;5094464;28;20200;-71
2022/04/08 04:05:34;;;;;;;5.75;2.10;;;;;;;;;;5093769;28;20255;-71
2022/04/08 04:08:01;;;;;;;4.53;2.03;;;;;;;;;;5094274;28;20564;-71
2022/04/08 04:10:28;;;;;;;7.53;2.55;;;;;;;;;;5093864;28;20256;-70
2022/04/08 04:12:55;;;;;;;7.40;2.35;;;;;;;;;;5094191;28;20206;-70
2022/04/08 04:15:23;;;;;;;12.35;3.08;;;;;;;;;;5093944;28;20287;-71
2022/04/08 04:17:51;;;;;;;6.72;3.03;;;;;;;;;;5094133;28;20201;-71
2022/04/08 04:20:18;;;;;;;5.20;2.30;;;;;;;;;;5093883;28;20202;-71
2022/04/08 04:22:47;;;;;;;3.78;3.38;;;;;;;;;;5093774;28;20656;-70
2022/04/08 04:25:14;;;;;;;8.50;2.55;;;;;;;;;;5094573;28;20248;-72
2022/04/08 04:27:41;;;;;;;10.88;2.75;;;;;;;;;;5093391;28;20193;-71
2022/04/08 04:30:09;;;;;;;13.13;2.50;;;;;;;;;;5093742;28;20193;-71
2022/04/08 04:32:36;;;;;;;6.32;2.33;;;;;;;;;;5093626;28;20651;-72
2022/04/08 04:35:07;;;;;;;9.48;2.55;;;;;;;;;;5093727;28;20670;-72
2022/04/08 04:37:34;;;;;;;14.02;3.40;;;;;;;;;;5094461;28;20629;-70
2022/04/08 04:40:02;;;;;;;9.05;2.15;;;;;;;;;;5093950;28;20222;-70
2022/04/08 04:42:29;;;;;;;9.05;2.90;;;;;;;;;;5093577;28;20215;-70
2022/04/08 04:44:56;;;;;;;7.80;2.67;;;;;;;;;;5094047;28;20194;-70
2022/04/08 04:47:24;;;;;;;7.53;2.13;;;;;;;;;;5093491;28;20236;-70
2022/04/08 04:49:51;;;;;;;6.13;2.70;;;;;;;;;;5093776;28;20198;-70
2022/04/08 04:52:20;;;;;;;6.60;2.35;;;;;;;;;;5093316;28;20781;-70
2022/04/08 04:54:47;;;;;;;16.73;2.85;;;;;;;;;;5093357;28;20197;-71
2022/04/08 04:57:15;;;;;;;6.55;2.40;;;;;;;;;;5093305;28;20194;-71
2022/04/08 04:59:43;;;;;;;8.70;2.70;;;;;;;;;;5093824;28;20232;-71
2022/04/08 05:02:10;;;;;;;6.10;2.63;;;;;;;;;;5093466;28;20226;-71
2022/04/08 05:04:37;;;;;;;6.22;2.80;;;;;;;;;;5093313;28;20753;-71
2022/04/08 05:07:04;;;;;;;7.93;2.75;;;;;;;;;;5093112;28;20200;-70
2022/04/08 05:09:33;;;;;;;6.68;2.40;;;;;;;;;;5093290;28;20197;-71
2022/04/08 05:12:00;;;;;;;9.30;2.33;;;;;;;;;;5093441;28;20204;-71
2022/04/08 05:14:29;;;;;;;12.82;3.47;;;;;;;;;;5093151;28;20647;-70
2022/04/08 05:16:58;;;;;;;14.45;3.08;;;;;;;;;;5094740;28;20195;-71
2022/04/08 05:19:25;;;;;;;15.65;3.15;;;;;;;;;;5095522;28;20287;-70
2022/04/08 05:21:53;;;;;;;10.70;2.70;;;;;;;;;;5096009;28;20228;-70
2022/04/08 05:24:20;;;;;;;7.72;2.90;;;;;;;;;;5097160;28;20199;-70
2022/04/08 05:26:49;;;;;;;4.88;3.30;;;;;;;;;;5097315;28;20201;-71
2022/04/08 05:29:16;;;;;;;11.10;3.20;;;;;;;;;;5097307;28;20256;-71
2022/04/08 05:31:43;;;;;;;10.48;3.42;;;;;;;;;;5097378;28;20213;-71
2022/04/08 05:34:11;;;;;;;19.52;3.13;;;;;;;;;;5097280;28;20556;-71
2022/04/08 05:36:38;;;;;;;12.00;3.00;;;;;;;;;;5097633;28;20668;-71
2022/04/08 05:39:05;;;;;;;7.50;2.45;;;;;;;;;;5096712;28;20649;-72
2022/04/08 05:41:32;;;;;;;6.03;2.65;;;;;;;;;;5097315;28;20224;-71
2022/04/08 05:44:01;;;;;;;9.40;3.00;;;;;;;;;;5096687;28;20289;-71
2022/04/08 05:46:28;;;;;;;5.55;2.65;;;;;;;;;;5097152;28;20580;-71
2022/04/08 05:48:55;;;;;;;6.93;3.42;;;;;;;;;;5097207;28;20187;-70
2022/04/08 05:51:22;;;;;;;3.50;2.75;;;;;;;;;;5096999;28;20199;-71
2022/04/08 05:53:50;;;;;;;4.00;2.65;;;;;;;;;;5096626;28;20200;-71
2022/04/08 05:56:17;;;;;;;8.65;2.90;;;;;;;;;;5096519;28;20198;-71
2022/04/08 05:58:45;;;;;;;12.93;4.13;;;;;;;;;;5096755;28;20192;-70
2022/04/08 06:01:14;;;;;;;8.65;2.88;;;;;;;;;;5096430;28;20215;-71
2022/04/08 06:03:41;;;;;;;4.05;2.97;;;;;;;;;;5096408;28;20198;-70
2022/04/08 06:06:08;;;;;;;13.75;3.55;;;;;;;;;;5096379;28;20196;-70
2022/04/08 06:08:35;;;;;;;10.50;2.78;;;;;;;;;;5096591;28;20189;-70
2022/04/08 06:11:02;;;;;;;13.55;2.83;;;;;;;;;;5096370;28;20206;-71
2022/04/08 06:13:30;;;;;;;8.70;2.67;;;;;;;;;;5096165;28;20198;-70
2022/04/08 06:15:57;;;;;;;8.77;3.08;;;;;;;;;;5096271;28;20189;-70
2022/04/08 06:18:25;;;;;;;7.50;2.95;;;;;;;;;;5096376;28;20198;-70
2022/04/08 06:20:52;;;;;;;6.85;2.40;;;;;;;;;;5096049;28;20194;-71
2022/04/08 06:23:20;;;;;;;5.32;2.70;;;;;;;;;;5096252;28;20204;-70
2022/04/08 06:25:48;;;;;;;14.07;2.83;;;;;;;;;;5096250;28;20283;-71
2022/04/08 06:28:15;;;;;;;6.55;3.05;;;;;;;;;;5095430;28;20240;-70
2022/04/08 06:30:42;;;;;;;13.35;2.72;;;;;;;;;;5096246;28;20202;-71
2022/04/08 06:33:09;;;;;;;9.85;2.78;;;;;;;;;;5096254;28;20202;-70
2022/04/08 06:35:38;;;;;;;10.38;2.95;;;;;;;;;;5095811;28;20199;-70
2022/04/08 06:38:07;;;;;;;8.45;3.33;;;;;;;;;;5095904;28;20679;-71
2022/04/08 06:40:37;;;;;;;10.23;2.72;;;;;;;;;;5095524;28;20203;-70
2022/04/08 06:43:05;;;;;;;5.25;2.85;;;;;;;;;;5096156;28;20219;-71
2022/04/08 06:45:33;;;;;;;7.13;3.08;;;;;;;;;;5095847;28;20715;-70
2022/04/08 06:48:00;;;;;;;8.43;3.17;;;;;;;;;;5096542;28;20307;-70
2022/04/08 06:50:28;;;;;;;7.80;2.55;;;;;;;;;;5095781;28;20555;-71
2022/04/08 06:53:00;;;;;;;8.80;2.80;;;;;;;;;;5095790;28;20581;-70
2022/04/08 06:55:27;;;;;;;9.55;3.55;;;;;;;;;;5095362;28;20637;-71
2022/04/08 06:57:55;;;;;;;6.85;2.80;;;;;;;;;;5095654;28;20242;-71
2022/04/08 07:00:23;;;;;;;8.55;3.15;;;;;;;;;;5095590;28;20288;-71
2022/04/08 07:02:51;;;;;;;17.13;4.40;;;;;;;;;;5095633;28;20225;-71
2022/04/08 07:05:18;;;;;;;22.45;4.43;;;;;;;;;;5095665;28;20200;-71
2022/04/08 07:07:46;;;;;;;9.65;4.60;;;;;;;;;;5095408;28;20194;-71
2022/04/08 07:10:15;;;;;;;13.10;3.67;;;;;;;;;;5095075;28;20192;-71
2022/04/08 07:12:42;;;;;;;9.57;4.78;;;;;;;;;;5095427;28;20199;-71
2022/04/08 07:15:10;;;;;;;6.88;3.05;;;;;;;;;;5095287;28;20231;-71
2022/04/08 07:17:38;;;;;;;21.52;7.10;;;;;;;;;;5095026;28;20283;-70
2022/04/08 07:20:05;;;;;;;12.95;3.50;;;;;;;;;;5095182;28;20298;-70
2022/04/08 07:22:33;;;;;;;4.80;3.63;;;;;;;;;;5094761;28;20303;-71
2022/04/08 07:25:00;;;;;;;6.57;4.05;;;;;;;;;;5094696;28;20208;-71
2022/04/08 07:27:29;;;;;;;6.82;2.25;;;;;;;;;;5094738;28;20680;-71
2022/04/08 07:29:56;;;;;;;8.07;3.20;;;;;;;;;;5095181;28;20691;-70
2022/04/08 07:32:24;;;;;;;10.00;3.25;;;;;;;;;;5094927;28;20208;-71
2022/04/08 07:34:51;;;;;;;4.10;2.80;;;;;;;;;;5094727;28;20679;-72
2022/04/08 07:37:28;;;;;;;9.88;3.72;;;;;;;;;;5094635;28;20672;-71
2022/04/08 07:39:56;;;;;;;10.57;4.50;;;;;;;;;;5094355;28;20192;-71
2022/04/08 07:42:23;;;;;;;5.90;3.20;;;;;;;;;;5095110;28;20697;-71
2022/04/08 07:44:52;;;;;;;8.07;3.10;;;;;;;;;;5094700;28;20206;-71
2022/04/08 07:47:20;;;;;;;5.78;3.55;;;;;;;;;;5095068;28;20321;-70
2022/04/08 07:49:47;;;;;;;11.02;4.00;;;;;;;;;;5094631;28;20197;-70
2022/04/08 07:52:15;;;;;;;6.65;3.72;;;;;;;;;;5094328;28;20289;-70
2022/04/08 07:54:43;;;;;;;5.07;3.10;;;;;;;;;;5094387;28;20198;-70
2022/04/08 07:57:10;;;;;;;12.48;4.07;;;;;;;;;;5094551;28;20199;-70
2022/04/08 07:59:37;;;;;;;7.40;3.10;;;;;;;;;;5094445;28;20749;-70
2022/04/08 08:02:06;;;;;;;9.80;3.08;;;;;;;;;;5094101;28;20307;-71
2022/04/08 08:04:33;;;;;;;4.63;2.13;;;;;;;;;;5094433;28;20287;-70
2022/04/08 08:07:00;;;;;;;13.75;3.67;;;;;;;;;;5094645;28;20227;-70
2022/04/08 08:09:28;;;;;;;5.68;3.17;;;;;;;;;;5094449;28;20200;-70
2022/04/08 08:11:55;;;;;;;6.05;3.10;;;;;;;;;;5094317;28;20199;-70
2022/04/08 08:14:22;;;;;;;10.48;2.83;;;;;;;;;;5093982;28;20207;-70
2022/04/08 08:16:49;;;;;;;6.63;4.20;;;;;;;;;;5093550;28;20224;-70
2022/04/08 08:19:18;;;;;;;3.75;2.80;;;;;;;;;;5094132;28;20202;-69
2022/04/08 08:21:45;;;;;;;6.07;2.95;;;;;;;;;;5093447;28;20196;-70
2022/04/08 08:24:12;;;;;;;10.48;3.90;;;;;;;;;;5094228;28;20316;-70
2022/04/08 08:26:40;;;;;;;9.10;4.45;;;;;;;;;;5093698;28;20653;-70
2022/04/08 08:29:07;;;;;;;7.75;3.90;;;;;;;;;;5093854;28;20233;-70
2022/04/08 08:31:34;;;;;;;5.88;2.67;;;;;;;;;;5093878;28;20201;-69
2022/04/08 08:34:02;;;;;;;4.93;2.28;;;;;;;;;;5093909;28;20204;-71
2022/04/08 08:36:30;;;;;;;9.43;4.28;;;;;;;;;;5093482;28;20198;-70
2022/04/08 08:38:58;;;;;;;7.90;3.78;;;;;;;;;;5094231;28;20191;-70
2022/04/08 08:41:25;;;;;;;2.65;2.45;;;;;;;;;;5093804;28;20201;-70
2022/04/08 08:43:54;;;;;;;3.75;2.50;;;;;;;;;;5094105;28;20225;-70
2022/04/08 08:46:22;;;;;;;9.43;2.92;;;;;;;;;;5093436;28;20227;-70
2022/04/08 08:48:51;;;;;;;7.93;3.42;;;;;;;;;;5094005;28;20188;-71
2022/04/08 08:51:19;;;;;;;4.70;2.85;;;;;;;;;;5093317;28;20192;-71
2022/04/08 08:53:48;;;;;;;4.80;2.15;;;;;;;;;;5093980;28;20650;-70
2022/04/08 08:56:16;;;;;;;7.07;2.47;;;;;;;;;;5093606;28;20196;-70
2022/04/08 08:58:43;;;;;;;2.58;2.20;;;;;;;;;;5093360;28;20212;-70
2022/04/08 09:01:11;;;;;;;10.25;2.92;;;;;;;;;;5093252;28;20645;-70
2022/04/08 09:03:41;;;;;;;5.00;2.25;;;;;;;;;;5093538;28;20574;-71
2022/04/08 09:06:09;;;;;;;7.10;3.10;;;;;;;;;;5093441;28;20193;-70
2022/04/08 09:08:36;;;;;;;7.50;3.28;;;;;;;;;;5093582;28;20539;-70
2022/04/08 09:11:05;;;;;;;5.38;2.75;;;;;;;;;;5093535;28;20224;-71
2022/04/08 09:13:36;;;;;;;4.05;3.15;;;;;;;;;;5093810;28;20550;-70
2022/04/08 09:16:03;;;;;;;2.58;2.38;;;;;;;;;;5093009;28;20286;-70
2022/04/08 09:18:32;;;;;;;5.32;3.78;;;;;;;;;;5093241;28;20203;-71
2022/04/08 09:20:59;;;;;;;9.77;3.13;;;;;;;;;;5092977;28;20205;-71
2022/04/08 09:23:28;;;;;;;5.65;2.80;;;;;;;;;;5093305;28;20300;-70
2022/04/08 09:26:00;;;;;;;3.13;2.42;;;;;;;;;;5093350;28;20581;-71
2022/04/08 09:28:33;;;;;;;5.28;2.63;;;;;;;;;;5093251;28;20195;-71
2022/04/08 09:31:02;;;;;;;6.00;2.58;;;;;;;;;;5093694;28;20250;-70
2022/04/08 09:33:29;;;;;;;4.50;3.10;;;;;;;;;;5092945;28;20257;-71
2022/04/08 09:35:57;;;;;;;3.25;2.00;;;;;;;;;;5092934;28;20284;-70
2022/04/08 09:38:25;;;;;;;4.22;2.83;;;;;;;;;;5092849;28;20298;-71
2022/04/08 09:40:59;;;;;;;9.55;3.50;;;;;;;;;;5093098;28;20605;-70
2022/04/08 09:43:33;;;;;;;5.32;2.60;;;;;;;;;;5093012;28;20234;-71
2022/04/08 09:46:21;;;;;;;6.25;2.53;;;;;;;;;;5092824;28;20204;-70
2022/04/08 09:48:49;;;;;;;6.13;3.33;;;;;;;;;;5089821;28;20236;-71
2022/04/08 09:51:21;;;;;;;3.75;2.90;;;;;;;;;;5093062;28;20245;-71
2022/04/08 09:53:56;;;;;;;9.32;2.47;;;;;;;;;;5092977;28;20203;-71
2022/04/08 09:56:23;;;;;;;3.45;2.30;;;;;;;;;;5092942;28;20193;-71
2022/04/08 09:58:56;;;;;;;5.57;2.20;;;;;;;;;;5093211;28;20200;-71
2022/04/08 10:01:25;;;;;;;7.90;2.72;;;;;;;;;;5092821;28;20178;-70
2022/04/08 10:03:53;;;;;;;10.35;2.80;;;;;;;;;;5095398;28;20230;-70
2022/04/08 10:06:21;;;;;;;6.03;2.30;;;;;;;;;;5096432;28;20196;-71
2022/04/08 10:08:49;;;;;;;12.50;2.47;;;;;;;;;;5096697;28;20259;-71
2022/04/08 10:11:18;;;;;;;6.18;2.88;;;;;;;;;;5096345;28;20609;-71
2022/04/08 10:13:48;;;;;;;3.03;1.92;;;;;;;;;;5096621;28;20193;-72
2022/04/08 10:16:18;;;;;;;6.80;2.53;;;;;;;;;;5096481;28;20287;-70
2022/04/08 10:18:46;;;;;;;11.48;2.65;;;;;;;;;;5096415;28;20194;-71
2022/04/08 10:21:14;;;;;;;3.33;2.88;;;;;;;;;;5096538;28;20196;-70
2022/04/08 10:23:42;;;;;;;7.28;3.33;;;;;;;;;;5096227;28;20213;-71
2022/04/08 10:26:17;;;;;;;6.73;3.07;;;;;;;;;;5095961;28;20227;-71
2022/04/08 10:28:45;;;;;;;3.80;2.20;;;;;;;;;;5096963;28;20436;-71
2022/04/08 10:31:15;;;;;;;4.93;2.33;;;;;;;;;;5096080;28;20640;-71
2022/04/08 10:33:58;;;;;;;3.53;2.90;;;;;;;;;;5095758;28;20677;-70
2022/04/08 10:36:35;;;;;;;7.07;2.85;;;;;;;;;;5096481;28;20212;-70
2022/04/08 10:39:15;;;;;;;5.15;2.60;;;;;;;;;;5096055;28;20287;-70
2022/04/08 10:41:46;;;;;;;4.28;2.40;;;;;;;;;;5095943;28;20200;-70
2022/04/08 10:44:14;;;;;;;3.85;2.80;;;;;;;;;;5095520;28;20221;-70
2022/04/08 10:46:50;;;;;;;5.28;2.70;;;;;;;;;;5096078;28;20263;-70
2022/04/08 10:49:19;;;;;;;4.72;2.30;;;;;;;;;;5095923;28;20199;-71
2022/04/08 10:51:46;;;;;;;5.55;2.45;;;;;;;;;;5095779;28;20284;-70
2022/04/08 10:54:15;;;;;;;5.88;2.83;;;;;;;;;;5095413;28;20662;-70
2022/04/08 10:56:42;;;;;;;4.82;2.58;;;;;;;;;;5095675;28;20205;-70
2022/04/08 10:59:09;;;;;;;6.00;2.57;;;;;;;;;;5096006;28;20296;-71
2022/04/08 11:01:45;;;;;;;3.22;2.90;;;;;;;;;;5095355;28;20531;-71
2022/04/08 11:04:14;;;;;;;6.28;2.55;;;;;;;;;;5095275;28;20660;-70
2022/04/08 11:06:43;;;;;;;4.32;2.05;;;;;;;;;;5095922;28;20287;-70
2022/04/08 11:09:11;;;;;;;5.22;2.60;;;;;;;;;;5094916;28;20229;-71
2022/04/08 11:11:39;;;;;;;3.97;2.40;;;;;;;;;;5094884;28;20655;-71
2022/04/08 11:14:07;;;;;;;4.40;2.70;;;;;;;;;;5095194;28;20201;-70
2022/04/08 11:16:35;;;;;;;4.63;3.10;;;;;;;;;;5095491;28;20300;-70
2022/04/08 11:19:05;;;;;;;6.53;2.60;;;;;;;;;;5095225;28;20233;-70
2022/04/08 11:21:32;;;;;;;2.92;2.67;;;;;;;;;;5095128;28;20201;-70
2022/04/08 11:24:01;;;;;;;7.43;3.70;;;;;;;;;;5095138;28;20217;-70
2022/04/08 11:26:29;;;;;;;4.70;2.90;;;;;;;;;;5095042;28;20675;-71
2022/04/08 11:28:57;;;;;;;7.38;3.03;;;;;;;;;;5094709;28;20225;-71
2022/04/08 11:31:24;;;;;;;3.33;2.72;;;;;;;;;;5095028;28;20262;-70
2022/04/08 11:33:51;;;;;;;5.10;3.23;;;;;;;;;;5094605;28;20199;-71
2022/04/08 11:36:23;;;;;;;4.13;2.60;;;;;;;;;;5095166;28;20768;-70
2022/04/08 11:38:50;;;;;;;4.57;3.00;;;;;;;;;;5095238;28;20242;-73
2022/04/08 11:41:23;;;;;;;8.05;3.00;;;;;;;;;;5095384;28;20225;-69
2022/04/08 11:43:50;;;;;;;6.37;3.13;;;;;;;;;;5094395;28;20218;-68
2022/04/08 11:46:18;;;;;;;7.97;2.97;;;;;;;;;;5094236;28;20472;-68
2022/04/08 11:48:45;;;;;;;7.07;3.40;;;;;;;;;;5094752;28;20940;-68
2022/04/08 11:51:13;;;;;;;3.88;2.65;;;;;;;;;;5094732;28;20206;-67
2022/04/08 11:53:44;;;;;;;6.70;3.07;;;;;;;;;;5094617;28;20205;-68
2022/04/08 11:56:11;;;;;;;5.15;2.67;;;;;;;;;;5095701;28;20442;-67
2022/04/08 11:58:40;;;;;;;4.80;2.70;;;;;;;;;;5094213;28;20199;-68
2022/04/08 12:01:09;;;;;;;5.07;2.80;;;;;;;;;;5094244;28;20193;-68
2022/04/08 12:03:37;;;;;;;4.63;3.63;;;;;;;;;;5094238;28;20214;-68
2022/04/08 12:06:05;;;;;;;4.80;2.45;;;;;;;;;;5094122;28;20201;-67
2022/04/08 12:08:32;;;;;;;4.43;2.67;;;;;;;;;;5094331;28;20205;-68
2022/04/08 12:10:59;;;;;;;3.90;3.30;;;;;;;;;;5093581;28;20530;-68
2022/04/08 12:13:27;;;;;;;5.22;3.38;;;;;;;;;;5094546;28;20534;-68
2022/04/08 12:15:57;;;;;;;5.80;3.20;;;;;;;;;;5093874;28;20705;-68
2022/04/08 12:18:24;;;;;;;3.58;3.10;;;;;;;;;;5094308;28;20194;-68
2022/04/08 12:20:53;;;;;;;7.47;2.75;;;;;;;;;;5094080;28;20280;-67
2022/04/08 12:23:22;;;;;;;8.07;2.90;;;;;;;;;;5093761;28;20728;-68
2022/04/08 12:25:52;;;;;;;7.30;3.30;;;;;;;;;;5093509;28;20485;-68
2022/04/08 12:28:19;;;;;;;7.63;3.10;;;;;;;;;;5093729;28;20511;-68
2022/04/08 12:30:47;;;;;;;8.20;3.10;;;;;;;;;;5094197;28;20467;-67
2022/04/08 12:33:16;;;;;;;2.80;2.23;;;;;;;;;;5093886;28;20448;-68
2022/04/08 12:35:43;;;;;;;4.20;2.70;;;;;;;;;;5093858;28;20440;-67
2022/04/08 12:38:10;;;;;;;4.25;3.28;;;;;;;;;;5093918;28;20439;-67
2022/04/08 12:40:38;;;;;;;6.32;2.70;;;;;;;;;;5093427;28;20200;-68
2022/04/08 12:43:06;;;;;;;3.77;3.07;;;;;;;;;;5093485;28;20608;-68
2022/04/08 12:45:33;;;;;;;8.30;3.27;;;;;;;;;;5093743;28;20439;-68
2022/04/08 12:48:01;;;;;;;2.40;2.20;;;;;;;;;;5093963;28;20475;-68
2022/04/08 12:50:29;;;;;;;4.50;3.30;;;;;;;;;;5093626;28;20254;-67
2022/04/08 12:52:56;;;;;;;6.07;3.40;;;;;;;;;;5093711;28;20446;-68
2022/04/08 12:55:24;;;;;;;5.27;2.97;;;;;;;;;;5093618;28;20205;-68
2022/04/08 12:57:51;;;;;;;7.40;3.37;;;;;;;;;;5093874;28;20443;-68
2022/04/08 13:00:18;;;;;;;6.07;3.30;;;;;;;;;;5093249;28;20447;-68
2022/04/08 13:02:46;;;;;;;8.53;3.07;;;;;;;;;;5093377;28;20490;-68
2022/04/08 13:05:13;;;;;;;2.27;2.07;;;;;;;;;;5093357;28;20483;-68
2022/04/08 13:07:42;;;;;;;3.45;2.50;;;;;;;;;;5093576;28;20435;-68
2022/04/08 13:10:10;;;;;;;4.72;3.40;;;;;;;;;;5093402;28;20192;-68
2022/04/08 13:12:37;;;;;;;4.00;2.70;;;;;;;;;;5093692;28;20556;-69
2022/04/08 13:15:05;;;;;;;5.20;2.73;;;;;;;;;;5093138;28;20486;-69
2022/04/08 13:17:32;;;;;;;3.60;3.30;;;;;;;;;;5092502;28;20448;-69
2022/04/08 13:19:59;;;;;;;6.10;3.15;;;;;;;;;;5093793;28;20449;-69
2022/04/08 13:22:27;;;;;;;4.18;3.20;;;;;;;;;;5093119;28;20193;-70
2022/04/08 13:24:56;;;;;;;3.05;2.35;;;;;;;;;;5093626;28;20217;-70
2022/04/08 13:27:23;;;;;;;6.63;2.90;;;;;;;;;;5093172;28;20570;-70
2022/04/08 13:29:51;;;;;;;6.97;3.30;;;;;;;;;;5093269;28;20478;-70
2022/04/08 13:32:18;;;;;;;3.63;2.60;;;;;;;;;;5093996;28;20489;-69
2022/04/08 13:34:45;;;;;;;2.85;2.65;;;;;;;;;;5093127;28;20461;-70
2022/04/08 13:37:13;;;;;;;2.90;2.50;;;;;;;;;;5095177;28;20223;-70
2022/04/08 13:39:41;;;;;;;4.85;2.90;;;;;;;;;;5097258;28;20474;-69
2022/04/08 13:42:09;;;;;;;6.97;3.15;;;;;;;;;;5097197;28;20228;-70
2022/04/08 13:44:37;;;;;;;3.13;2.92;;;;;;;;;;5097452;28;20573;-70
2022/04/08 13:47:05;;;;;;;2.97;2.67;;;;;;;;;;5096657;28;20233;-69
2022/04/08 13:49:32;;;;;;;3.97;2.53;;;;;;;;;;5097253;28;20189;-70
2022/04/08 13:51:59;;;;;;;3.25;3.00;;;;;;;;;;5097084;28;20504;-69
2022/04/08 13:54:27;;;;;;;3.30;3.03;;;;;;;;;;5096928;28;20201;-70
2022/04/08 13:56:54;;;;;;;3.65;3.00;;;;;;;;;;5096976;28;20460;-70
2022/04/08 13:59:23;;;;;;;2.53;2.33;;;;;;;;;;5096815;28;20550;-70
2022/04/08 14:01:51;;;;;;;5.82;2.83;;;;;;;;;;5096905;28;20277;-70
2022/04/08 14:04:18;;;;;;;6.32;3.50;;;;;;;;;;5096733;28;20565;-69
2022/04/08 14:06:46;;;;;;;4.72;3.00;;;;;;;;;;5096801;28;20189;-69
2022/04/08 14:09:13;;;;;;;4.10;3.20;;;;;;;;;;5096391;28;20228;-69
2022/04/08 14:11:40;;;;;;;7.03;3.57;;;;;;;;;;5096183;28;20447;-69
2022/04/08 14:14:08;;;;;;;3.42;3.10;;;;;;;;;;5096248;28;20959;-69
2022/04/08 14:16:39;;;;;;;7.75;3.58;;;;;;;;;;5096428;28;20228;-69
2022/04/08 14:19:06;;;;;;;4.10;3.35;;;;;;;;;;5096960;28;20186;-69
2022/04/08 14:21:34;;;;;;;6.88;3.28;;;;;;;;;;5096038;28;20297;-70
2022/04/08 14:24:01;;;;;;;7.90;3.15;;;;;;;;;;5096211;28;20758;-69
2022/04/08 14:26:28;;;;;;;3.38;2.92;;;;;;;;;;5096279;28;20189;-70
2022/04/08 14:28:55;;;;;;;4.60;2.80;;;;;;;;;;5096038;28;20280;-69
2022/04/08 14:31:23;;;;;;;6.72;3.72;;;;;;;;;;5096134;28;20200;-69
2022/04/08 14:33:51;;;;;;;6.70;3.70;;;;;;;;;;5096126;28;20197;-70
2022/04/08 14:36:19;;;;;;;4.63;3.78;;;;;;;;;;5096577;28;20200;-70
2022/04/08 14:38:46;;;;;;;9.98;3.78;;;;;;;;;;5095743;28;20199;-70
2022/04/08 14:41:15;;;;;;;7.03;3.90;;;;;;;;;;5095985;28;20227;-70
2022/04/08 14:43:44;;;;;;;5.93;3.43;;;;;;;;;;5095585;28;20440;-70
2022/04/08 14:46:12;;;;;;;6.53;4.07;;;;;;;;;;5094902;28;21028;-70